Station Historical Data
Daily Summary for January 10, 2017 Units:  English    Metric   Both
« Previous Day
Next Day »
Daily Weekly Monthly Yearly Custom
  High: Low: Average:
Temperature: 45.1 °F 16.5 °F 33.7 °F
Dew Point: 40.2 °F 7.6 °F 25.3 °F
Humidity: 86% 47% 71%
Wind Speed: 20.0mph 0.0mph 6.7mph
Wind Gust: 36.0mph - -
Wind- - South
Pressure: 30.40 in 29.60 in -
Precipitation: 0.00 in    
Historical Graphs
 
 
Tabular Data for January 10, 2017
Time Temperature Dew Point Pressure Wind Wind Speed Wind Gust Humidity Rainfall Rate (Hourly)
00:04 18.4 °F 8.2 °F 30.40 in Calm   2.0 mph 64% 0.00 in
00:09 18.3 °F 8.1 °F 30.40 in SSE 1.0 mph 3.0 mph 64% 0.00 in
00:14 18.3 °F 8.1 °F 30.40 in SSE 2.0 mph 3.0 mph 64% 0.00 in
00:19 18.2 °F 8.1 °F 30.40 in SSE 2.0 mph 3.0 mph 64% 0.00 in
00:24 18.0 °F 7.9 °F 30.40 in SSE 1.0 mph 3.0 mph 64% 0.00 in
00:29 17.2 °F 7.8 °F 30.40 in Calm   2.0 mph 66% 0.00 in
00:34 16.7 °F 7.6 °F 30.40 in Calm     67% 0.00 in
00:39 16.5 °F 7.8 °F 30.39 in Calm     68% 0.00 in
00:44 16.6 °F 7.9 °F 30.39 in Calm     68% 0.00 in
00:49 17.1 °F 8.3 °F 30.39 in Calm     68% 0.00 in
00:54 17.4 °F 8.6 °F 30.40 in Calm     68% 0.00 in
00:59 17.7 °F 8.9 °F 30.40 in Calm     68% 0.00 in
01:04 18.0 °F 9.2 °F 30.39 in Calm     68% 0.00 in
01:09 18.5 °F 9.7 °F 30.40 in Calm     68% 0.00 in
01:14 18.6 °F 9.5 °F 30.39 in Calm     67% 0.00 in
01:19 18.7 °F 9.6 °F 30.38 in Calm     67% 0.00 in
01:24 19.0 °F 9.8 °F 30.38 in Calm   3.0 mph 67% 0.00 in
01:29 19.8 °F 10.3 °F 30.38 in South 1.0 mph 5.0 mph 66% 0.00 in
01:34 21.2 °F 10.6 °F 30.38 in South 3.0 mph 6.0 mph 63% 0.00 in
01:39 22.3 °F 11.2 °F 30.38 in South 3.0 mph 7.0 mph 62% 0.00 in
01:44 23.1 °F 11.3 °F 30.38 in South 4.0 mph 7.0 mph 60% 0.00 in
01:49 23.4 °F 11.2 °F 30.38 in South 5.0 mph 7.0 mph 59% 0.00 in
01:54 23.7 °F 11.1 °F 30.38 in SSW 3.0 mph 9.0 mph 58% 0.00 in
01:59 23.9 °F 11.3 °F 30.38 in South 4.0 mph 10.0 mph 58% 0.00 in
02:04 24.1 °F 11.4 °F 30.38 in SW 7.0 mph 8.0 mph 58% 0.00 in
02:09 24.1 °F 11.4 °F 30.38 in South 7.0 mph 7.0 mph 58% 0.00 in
02:14 24.2 °F 11.1 °F 30.38 in SSW 7.0 mph 8.0 mph 57% 0.00 in
02:19 24.3 °F 11.6 °F 30.38 in South 4.0 mph 9.0 mph 58% 0.00 in
02:24 24.4 °F 11.7 °F 30.38 in South 2.0 mph 6.0 mph 58% 0.00 in
02:29 24.5 °F 11.8 °F 30.38 in South 3.0 mph 8.0 mph 58% 0.00 in
02:34 24.6 °F 12.3 °F 30.38 in South 3.0 mph 8.0 mph 59% 0.00 in
02:39 24.7 °F 12.0 °F 30.38 in South 3.0 mph 9.0 mph 58% 0.00 in
02:44 24.7 °F 12.0 °F 30.37 in South 3.0 mph 9.0 mph 58% 0.00 in
02:49 24.8 °F 12.1 °F 30.37 in South 3.0 mph 8.0 mph 58% 0.00 in
02:54 24.9 °F 12.2 °F 30.37 in South 5.0 mph 7.0 mph 58% 0.00 in
02:59 25.0 °F 12.3 °F 30.37 in SSW 5.0 mph 7.0 mph 58% 0.00 in
03:04 25.1 °F 12.4 °F 30.36 in SSW 3.0 mph 8.0 mph 58% 0.00 in
03:09 25.2 °F 12.5 °F 30.36 in SSW 3.0 mph 7.0 mph 58% 0.00 in
03:14 25.3 °F 12.6 °F 30.36 in South 4.0 mph 7.0 mph 58% 0.00 in
03:19 25.4 °F 12.7 °F 30.35 in South 2.0 mph 6.0 mph 58% 0.00 in
03:24 25.4 °F 13.1 °F 30.35 in South 3.0 mph 6.0 mph 59% 0.00 in
03:29 25.5 °F 12.8 °F 30.35 in SSW 6.0 mph 6.0 mph 58% 0.00 in
03:34 25.5 °F 13.1 °F 30.34 in South 3.0 mph 6.0 mph 59% 0.00 in
03:39 25.6 °F 13.2 °F 30.34 in South 3.0 mph 7.0 mph 59% 0.00 in
03:44 25.7 °F 13.3 °F 30.34 in South 3.0 mph 7.0 mph 59% 0.00 in
03:49 25.8 °F 13.4 °F 30.34 in South 4.0 mph 8.0 mph 59% 0.00 in
03:54 26.0 °F 13.2 °F 30.34 in South 4.0 mph 8.0 mph 58% 0.00 in
03:59 26.2 °F 13.4 °F 30.34 in South 4.0 mph 7.0 mph 58% 0.00 in
04:04 26.3 °F 13.5 °F 30.34 in South 4.0 mph 7.0 mph 58% 0.00 in
04:09 26.4 °F 13.6 °F 30.33 in South 3.0 mph 5.0 mph 58% 0.00 in
04:14 26.5 °F 13.7 °F 30.33 in South 3.0 mph 7.0 mph 58% 0.00 in
04:19 26.7 °F 13.9 °F 30.32 in South 2.0 mph 6.0 mph 58% 0.00 in
04:24 26.8 °F 14.0 °F 30.32 in SSE 2.0 mph 4.0 mph 58% 0.00 in
04:29 27.0 °F 14.2 °F 30.31 in South 2.0 mph 5.0 mph 58% 0.00 in
04:34 27.2 °F 14.0 °F 30.31 in SSW 1.0 mph 5.0 mph 57% 0.00 in
04:39 27.4 °F 14.1 °F 30.32 in Calm   4.0 mph 57% 0.00 in
04:44 27.5 °F 14.2 °F 30.32 in South 2.0 mph 4.0 mph 57% 0.00 in
04:49 27.5 °F 14.2 °F 30.32 in SSW 1.0 mph 3.0 mph 57% 0.00 in
04:54 27.6 °F 13.9 °F 30.31 in South 1.0 mph 4.0 mph 56% 0.00 in
04:59 27.8 °F 14.1 °F 30.31 in South 2.0 mph 4.0 mph 56% 0.00 in
05:04 28.0 °F 14.3 °F 30.31 in South 1.0 mph 3.0 mph 56% 0.00 in
05:09 28.2 °F 13.7 °F 30.31 in South 2.0 mph 4.0 mph 54% 0.00 in
05:14 28.3 °F 13.8 °F 30.31 in Calm   2.0 mph 54% 0.00 in
05:19 28.3 °F 14.2 °F 30.31 in SSE 1.0 mph 4.0 mph 55% 0.00 in
05:24 28.4 °F 14.7 °F 30.31 in SSE 1.0 mph 4.0 mph 56% 0.00 in
05:29 28.3 °F 14.2 °F 30.31 in SSE 1.0 mph 2.0 mph 55% 0.00 in
05:34 28.5 °F 14.4 °F 30.30 in Calm   3.0 mph 55% 0.00 in
05:39 28.4 °F 13.9 °F 30.31 in Calm   2.0 mph 54% 0.00 in
05:44 28.4 °F 14.3 °F 30.30 in Calm     55% 0.00 in
05:49 28.4 °F 13.9 °F 30.30 in South 1.0 mph 4.0 mph 54% 0.00 in
05:54 28.7 °F 14.6 °F 30.30 in South 1.0 mph 4.0 mph 55% 0.00 in
05:59 29.0 °F 14.4 °F 30.30 in South 2.0 mph 4.0 mph 54% 0.00 in
06:04 29.2 °F 13.7 °F 30.30 in South 2.0 mph 6.0 mph 52% 0.00 in
06:09 29.7 °F 13.8 °F 30.30 in SW 3.0 mph 7.0 mph 51% 0.00 in
06:14 30.1 °F 13.7 °F 30.30 in South 3.0 mph 8.0 mph 50% 0.00 in
06:19 30.4 °F 14.0 °F 30.29 in SSE 6.0 mph 8.0 mph 50% 0.00 in
06:24 30.7 °F 12.8 °F 30.29 in SSW 4.0 mph 10.0 mph 47% 0.00 in
06:29 30.6 °F 13.7 °F 30.29 in SSW 5.0 mph 10.0 mph 49% 0.00 in
06:34 30.6 °F 13.7 °F 30.29 in South 5.0 mph 8.0 mph 49% 0.00 in
06:39 30.7 °F 13.3 °F 30.28 in South 10.0 mph 11.0 mph 48% 0.00 in
06:44 30.8 °F 16.1 °F 30.28 in SSW 5.0 mph 17.0 mph 54% 0.00 in
06:49 30.7 °F 16.0 °F 30.28 in SSW 9.0 mph 14.0 mph 54% 0.00 in
06:54 30.6 °F 17.2 °F 30.28 in SSW 8.0 mph 18.0 mph 57% 0.00 in
06:59 30.1 °F 17.5 °F 30.28 in SSW 8.0 mph 12.0 mph 59% 0.00 in
07:04 29.7 °F 18.6 °F 30.27 in SSW 7.0 mph 14.0 mph 63% 0.00 in
07:09 29.3 °F 19.0 °F 30.27 in SW 4.0 mph 12.0 mph 65% 0.00 in
07:14 29.1 °F 19.5 °F 30.26 in SW 3.0 mph 8.0 mph 67% 0.00 in
07:19 29.0 °F 19.4 °F 30.26 in SSW 4.0 mph 8.0 mph 67% 0.00 in
07:24 29.0 °F 19.4 °F 30.25 in SSW 3.0 mph 7.0 mph 67% 0.00 in
07:29 29.1 °F 19.2 °F 30.25 in South 3.0 mph 7.0 mph 66% 0.00 in
07:34 29.2 °F 19.2 °F 30.24 in South 3.0 mph 7.0 mph 66% 0.00 in
07:39 29.5 °F 19.2 °F 30.24 in SSE 5.0 mph 6.0 mph 65% 0.00 in
07:44 29.7 °F 19.0 °F 30.24 in SSE 6.0 mph 12.0 mph 64% 0.00 in
07:49 30.1 °F 19.0 °F 30.23 in South 5.0 mph 12.0 mph 63% 0.00 in
07:54 30.4 °F 19.7 °F 30.23 in South 9.0 mph 13.0 mph 64% 0.00 in
07:59 30.7 °F 20.3 °F 30.22 in South 3.0 mph 13.0 mph 65% 0.00 in
08:04 30.8 °F 20.0 °F 30.22 in South 6.0 mph 13.0 mph 64% 0.00 in
08:09 30.9 °F 20.1 °F 30.21 in SSE 5.0 mph 15.0 mph 64% 0.00 in
08:14 31.0 °F 20.2 °F 30.21 in South 2.0 mph 13.0 mph 64% 0.00 in
08:19 31.0 °F 19.9 °F 30.21 in South 6.0 mph 13.0 mph 63% 0.00 in
08:24 31.0 °F 20.6 °F 30.21 in SSE 5.0 mph 11.0 mph 65% 0.00 in
08:29 30.8 °F 20.8 °F 30.20 in SE 5.0 mph 11.0 mph 66% 0.00 in
08:34 30.7 °F 21.0 °F 30.20 in South 6.0 mph 11.0 mph 67% 0.00 in
08:39 30.7 °F 21.4 °F 30.21 in South 6.0 mph 10.0 mph 68% 0.00 in
08:44 30.7 °F 21.4 °F 30.21 in South 5.0 mph 10.0 mph 68% 0.00 in
08:49 30.7 °F 21.7 °F 30.21 in South 3.0 mph 9.0 mph 69% 0.00 in
08:54 30.7 °F 21.7 °F 30.20 in SSW 4.0 mph 7.0 mph 69% 0.00 in
08:59 30.7 °F 22.1 °F 30.20 in SSW 1.0 mph 6.0 mph 70% 0.00 in
09:04 30.8 °F 22.2 °F 30.20 in South 2.0 mph 5.0 mph 70% 0.00 in
09:09 30.8 °F 22.2 °F 30.19 in SSE 1.0 mph 7.0 mph 70% 0.00 in
09:14 31.0 °F 22.4 °F 30.19 in South 2.0 mph 5.0 mph 70% 0.00 in
09:19 31.1 °F 22.1 °F 30.19 in SSE 3.0 mph 6.0 mph 69% 0.00 in
09:24 31.2 °F 22.5 °F 30.19 in South 4.0 mph 12.0 mph 70% 0.00 in
09:29 31.6 °F 22.6 °F 30.18 in South 5.0 mph 12.0 mph 69% 0.00 in
09:34 31.9 °F 22.9 °F 30.18 in SSW 7.0 mph 10.0 mph 69% 0.00 in
09:39 32.1 °F 23.1 °F 30.18 in South 5.0 mph 10.0 mph 69% 0.00 in
09:44 32.1 °F 23.4 °F 30.18 in South 4.0 mph 9.0 mph 70% 0.00 in
09:49 32.3 °F 23.6 °F 30.17 in SE 2.0 mph 6.0 mph 70% 0.00 in
09:54 32.5 °F 23.8 °F 30.17 in South 3.0 mph 9.0 mph 70% 0.00 in
09:59 32.6 °F 23.6 °F 30.17 in South 5.0 mph 7.0 mph 69% 0.00 in
10:04 32.9 °F 24.2 °F 30.17 in SW 4.0 mph 9.0 mph 70% 0.00 in
10:09 33.0 °F 23.9 °F 30.17 in South 4.0 mph 9.0 mph 69% 0.00 in
10:14 33.2 °F 24.1 °F 30.17 in SSW 4.0 mph 12.0 mph 69% 0.00 in
10:19 33.3 °F 24.2 °F 30.17 in SSE 4.0 mph 7.0 mph 69% 0.00 in
10:24 33.5 °F 24.1 °F 30.16 in South 3.0 mph 13.0 mph 68% 0.00 in
10:29 33.6 °F 24.2 °F 30.16 in SSW 8.0 mph 11.0 mph 68% 0.00 in
10:34 33.8 °F 24.4 °F 30.16 in SSE 9.0 mph 11.0 mph 68% 0.00 in
10:39 34.0 °F 24.5 °F 30.15 in SSE 7.0 mph 12.0 mph 68% 0.00 in
10:44 34.0 °F 24.5 °F 30.15 in South 5.0 mph 12.0 mph 68% 0.00 in
10:49 34.1 °F 24.6 °F 30.15 in South 6.0 mph 12.0 mph 68% 0.00 in
10:54 34.1 °F 24.6 °F 30.14 in South 6.0 mph 11.0 mph 68% 0.00 in
10:59 34.1 °F 24.6 °F 30.13 in SSW 7.0 mph 8.0 mph 68% 0.00 in
11:04 34.2 °F 24.7 °F 30.12 in South 6.0 mph 7.0 mph 68% 0.00 in
11:09 34.3 °F 24.8 °F 30.11 in South 4.0 mph 8.0 mph 68% 0.00 in
11:14 34.4 °F 24.9 °F 30.11 in South 4.0 mph 9.0 mph 68% 0.00 in
11:19 34.6 °F 24.8 °F 30.10 in SSW 5.0 mph 7.0 mph 67% 0.00 in
11:24 34.6 °F 25.1 °F 30.09 in South 3.0 mph 8.0 mph 68% 0.00 in
11:29 34.6 °F 25.1 °F 30.09 in SE 5.0 mph 7.0 mph 68% 0.00 in
11:34 34.6 °F 25.1 °F 30.07 in South 3.0 mph 9.0 mph 68% 0.00 in
11:39 34.4 °F 25.6 °F 30.06 in SSE 5.0 mph 9.0 mph 70% 0.00 in
11:44 34.4 °F 25.3 °F 30.06 in SSE 5.0 mph 11.0 mph 69% 0.00 in
11:49 34.4 °F 25.6 °F 30.06 in South 5.0 mph 13.0 mph 70% 0.00 in
11:54 34.4 °F 25.6 °F 30.05 in South 5.0 mph 13.0 mph 70% 0.00 in
11:59 34.6 °F 25.8 °F 30.05 in SSW 5.0 mph 12.0 mph 70% 0.00 in
12:04 34.8 °F 25.7 °F 30.03 in South 5.0 mph 12.0 mph 69% 0.00 in
12:09 35.0 °F 25.5 °F 30.03 in South 7.0 mph 14.0 mph 68% 0.00 in
12:14 35.2 °F 25.7 °F 30.02 in SSW 8.0 mph 13.0 mph 68% 0.00 in
12:19 35.3 °F 25.4 °F 30.01 in South 4.0 mph 11.0 mph 67% 0.00 in
12:24 35.5 °F 25.6 °F 30.01 in SSW 4.0 mph 10.0 mph 67% 0.00 in
12:29 35.7 °F 25.8 °F 30.01 in SSW 5.0 mph 10.0 mph 67% 0.00 in
12:34 35.8 °F 25.9 °F 30.00 in SSW 6.0 mph 12.0 mph 67% 0.00 in
12:39 35.9 °F 26.0 °F 30.00 in SSW 6.0 mph 12.0 mph 67% 0.00 in
12:44 36.1 °F 26.2 °F 29.99 in SSW 6.0 mph 13.0 mph 67% 0.00 in
12:49 36.1 °F 26.2 °F 29.99 in SSW 7.0 mph 13.0 mph 67% 0.00 in
12:59 36.1 °F 26.2 °F 29.99 in SSW 8.0 mph 16.0 mph 67% 0.00 in
13:04 36.1 °F 26.2 °F 29.98 in South 8.0 mph 16.0 mph 67% 0.00 in
13:09 36.0 °F 26.5 °F 29.98 in South 7.0 mph 13.0 mph 68% 0.00 in
13:14 36.1 °F 26.6 °F 29.99 in South 7.0 mph 13.0 mph 68% 0.00 in
13:19 36.0 °F 26.8 °F 29.99 in South 6.0 mph 13.0 mph 69% 0.00 in
13:24 35.9 °F 27.1 °F 29.99 in South 6.0 mph 12.0 mph 70% 0.00 in
13:29 35.8 °F 27.3 °F 29.98 in South 8.0 mph 13.0 mph 71% 0.00 in
13:34 35.5 °F 27.7 °F 29.98 in South 10.0 mph 11.0 mph 73% 0.00 in
13:39 35.3 °F 27.8 °F 29.98 in SW 3.0 mph 12.0 mph 74% 0.00 in
13:44 35.0 °F 27.9 °F 29.97 in SSW 7.0 mph 13.0 mph 75% 0.00 in
13:49 34.9 °F 28.1 °F 29.97 in SSW 7.0 mph 10.0 mph 76% 0.00 in
13:54 34.9 °F 28.1 °F 29.96 in South 9.0 mph 12.0 mph 76% 0.00 in
13:59 34.9 °F 28.4 °F 29.95 in SSE 5.0 mph 11.0 mph 77% 0.00 in
14:04 34.9 °F 28.4 °F 29.95 in South 5.0 mph 14.0 mph 77% 0.00 in
14:09 35.0 °F 28.5 °F 29.94 in South 6.0 mph 14.0 mph 77% 0.00 in
14:14 35.1 °F 28.6 °F 29.94 in South 6.0 mph 13.0 mph 77% 0.00 in
14:19 35.1 °F 28.9 °F 29.94 in South 6.0 mph 14.0 mph 78% 0.00 in
14:24 35.2 °F 29.0 °F 29.94 in South 6.0 mph 14.0 mph 78% 0.00 in
14:29 35.3 °F 29.4 °F 29.93 in South 6.0 mph 15.0 mph 79% 0.00 in
14:34 35.4 °F 29.5 °F 29.93 in South 7.0 mph 15.0 mph 79% 0.00 in
14:39 35.5 °F 29.9 °F 29.92 in South 6.0 mph 11.0 mph 80% 0.00 in
14:44 35.6 °F 30.0 °F 29.92 in South 13.0 mph 16.0 mph 80% 0.00 in
14:49 35.8 °F 30.5 °F 29.92 in South 9.0 mph 17.0 mph 81% 0.00 in
14:54 35.8 °F 30.8 °F 29.91 in SE 6.0 mph 13.0 mph 82% 0.00 in
14:59 35.7 °F 31.0 °F 29.91 in WSW 5.0 mph 12.0 mph 83% 0.00 in
15:04 35.7 °F 31.3 °F 29.90 in South 7.0 mph 14.0 mph 84% 0.00 in
15:09 36.0 °F 31.6 °F 29.90 in South 11.0 mph 18.0 mph 84% 0.00 in
15:14 36.0 °F 31.6 °F 29.89 in South 9.0 mph 18.0 mph 84% 0.01 in
15:19 36.0 °F 31.6 °F 29.89 in South 9.0 mph 17.0 mph 84% 0.01 in
15:24 36.1 °F 31.7 °F 29.88 in South 9.0 mph 19.0 mph 84% 0.01 in
15:29 36.4 °F 32.0 °F 29.88 in South 9.0 mph 19.0 mph 84% 0.01 in
15:34 36.5 °F 31.8 °F 29.88 in South 15.0 mph 17.0 mph 83% 0.01 in
15:39 36.6 °F 31.9 °F 29.87 in SSE 6.0 mph 18.0 mph 83% 0.01 in
15:44 36.5 °F 32.1 °F 29.87 in South 9.0 mph 14.0 mph 84% 0.01 in
15:49 36.4 °F 32.0 °F 29.87 in South 8.0 mph 14.0 mph 84% 0.01 in
15:54 36.5 °F 32.1 °F 29.86 in South 9.0 mph 19.0 mph 84% 0.01 in
15:59 36.7 °F 32.0 °F 29.86 in SSE 7.0 mph 20.0 mph 83% 0.01 in
16:04 36.7 °F 32.0 °F 29.85 in South 5.0 mph 16.0 mph 83% 0.01 in
16:09 36.8 °F 32.1 °F 29.85 in South 12.0 mph 13.0 mph 83% 0.01 in
16:14 36.9 °F 32.2 °F 29.85 in SSW 10.0 mph 14.0 mph 83% 0.00 in
16:19 37.1 °F 32.4 °F 29.85 in South 8.0 mph 17.0 mph 83% 0.01 in
16:24 37.1 °F 32.4 °F 29.84 in South 8.0 mph 19.0 mph 83% 0.01 in
16:29 37.3 °F 32.6 °F 29.84 in SSW 7.0 mph 17.0 mph 83% 0.01 in
16:34 37.3 °F 32.6 °F 29.84 in South 6.0 mph 19.0 mph 83% 0.01 in
16:39 37.3 °F 32.9 °F 29.83 in SSW 7.0 mph 18.0 mph 84% 0.02 in
16:44 37.4 °F 33.0 °F 29.83 in SSE 9.0 mph 18.0 mph 84% 0.02 in
16:49 37.6 °F 33.2 °F 29.83 in South 14.0 mph 16.0 mph 84% 0.02 in
16:54 37.8 °F 33.1 °F 29.82 in South 8.0 mph 18.0 mph 83% 0.02 in
16:59 37.8 °F 33.1 °F 29.82 in South 10.0 mph 19.0 mph 83% 0.02 in
17:04 37.7 °F 33.0 °F 29.82 in South 10.0 mph 23.0 mph 83% 0.02 in
17:09 37.7 °F 33.3 °F 29.81 in South 11.0 mph 23.0 mph 84% 0.02 in
17:14 37.7 °F 33.3 °F 29.82 in South 12.0 mph 21.0 mph 84% 0.02 in
17:19 37.7 °F 33.3 °F 29.81 in SSW 5.0 mph 16.0 mph 84% 0.01 in
17:24 37.7 °F 33.3 °F 29.81 in South 14.0 mph 18.0 mph 84% 0.01 in
17:29 37.8 °F 33.4 °F 29.81 in South 9.0 mph 19.0 mph 84% 0.01 in
17:34 38.0 °F 33.6 °F 29.80 in South 9.0 mph 19.0 mph 84% 0.01 in
17:39 38.4 °F 34.0 °F 29.80 in South 8.0 mph 18.0 mph 84% 0.00 in
17:44 38.8 °F 34.1 °F 29.79 in SE 8.0 mph 17.0 mph 83% 0.00 in
17:49 39.1 °F 34.4 °F 29.79 in SW 6.0 mph 24.0 mph 83% 0.00 in
17:54 39.3 °F 34.6 °F 29.79 in South 14.0 mph 22.0 mph 83% 0.01 in
17:59 39.6 °F 35.2 °F 29.78 in SSW 8.0 mph 22.0 mph 84% 0.01 in
18:04 39.8 °F 35.1 °F 29.78 in South 12.0 mph 24.0 mph 83% 0.01 in
18:09 39.7 °F 35.3 °F 29.77 in South 12.0 mph 24.0 mph 84% 0.01 in
18:14 39.7 °F 35.3 °F 29.77 in South 12.0 mph 28.0 mph 84% 0.02 in
18:19 39.7 °F 35.3 °F 29.77 in South 12.0 mph 28.0 mph 84% 0.03 in
18:24 39.8 °F 35.7 °F 29.77 in SSW 6.0 mph 23.0 mph 85% 0.04 in
18:29 39.9 °F 36.1 °F 29.76 in South 4.0 mph 24.0 mph 86% 0.06 in
18:34 40.2 °F 36.3 °F 29.76 in SSW 12.0 mph 23.0 mph 86% 0.07 in
18:39 40.3 °F 36.1 °F 29.75 in South 12.0 mph 27.0 mph 85% 0.09 in
18:44 40.5 °F 36.6 °F 29.75 in South 12.0 mph 28.0 mph 86% 0.09 in
18:49 40.7 °F 36.8 °F 29.75 in South 12.0 mph 28.0 mph 86% 0.10 in
18:54 40.7 °F 36.5 °F 29.74 in South 8.0 mph 21.0 mph 85% 0.09 in
18:59 40.7 °F 36.5 °F 29.73 in SW 14.0 mph 22.0 mph 85% 0.10 in
19:04 41.0 °F 36.8 °F 29.73 in South 7.0 mph 27.0 mph 85% 0.10 in
19:09 41.2 °F 37.0 °F 29.73 in SW 12.0 mph 31.0 mph 85% 0.10 in
19:14 41.4 °F 36.9 °F 29.72 in South 11.0 mph 31.0 mph 84% 0.09 in
19:19 41.5 °F 37.0 °F 29.72 in South 11.0 mph 28.0 mph 84% 0.08 in
19:24 41.5 °F 37.0 °F 29.72 in South 11.0 mph 20.0 mph 84% 0.08 in
19:29 41.7 °F 37.5 °F 29.72 in SSW 5.0 mph 22.0 mph 85% 0.06 in
19:34 41.9 °F 37.7 °F 29.71 in SW 15.0 mph 26.0 mph 85% 0.06 in
19:39 42.1 °F 37.6 °F 29.72 in South 15.0 mph 25.0 mph 84% 0.04 in
19:44 42.2 °F 37.7 °F 29.71 in South 11.0 mph 25.0 mph 84% 0.04 in
19:49 42.2 °F 37.7 °F 29.70 in South 12.0 mph 27.0 mph 84% 0.03 in
19:54 42.2 °F 37.7 °F 29.69 in South 12.0 mph 27.0 mph 84% 0.03 in
19:59 42.2 °F 37.7 °F 29.70 in South 11.0 mph 22.0 mph 84% 0.02 in
20:04 42.1 °F 37.6 °F 29.69 in South 11.0 mph 22.0 mph 84% 0.02 in
20:09 41.8 °F 37.3 °F 29.69 in South 10.0 mph 23.0 mph 84% 0.03 in
20:14 41.8 °F 37.6 °F 29.69 in SSW 6.0 mph 21.0 mph 85% 0.03 in
20:19 42.0 °F 37.8 °F 29.69 in South 11.0 mph 21.0 mph 85% 0.03 in
20:24 42.2 °F 37.7 °F 29.68 in South 11.0 mph 22.0 mph 84% 0.02 in
20:29 42.5 °F 38.0 °F 29.69 in SSW 13.0 mph 24.0 mph 84% 0.02 in
20:34 42.7 °F 37.9 °F 29.68 in SSW 18.0 mph 19.0 mph 83% 0.01 in
20:39 43.0 °F 38.2 °F 29.68 in SSE 8.0 mph 23.0 mph 83% 0.01 in
20:49 43.4 °F 38.3 °F 29.67 in South 18.0 mph 24.0 mph 82% 0.01 in
20:54 44.1 °F 38.6 °F 29.66 in South 13.0 mph 24.0 mph 81% 0.01 in
20:59 44.1 °F 38.3 °F 29.66 in SSW 17.0 mph 28.0 mph 80% 0.01 in
21:04 44.2 °F 38.4 °F 29.66 in South 15.0 mph 29.0 mph 80% 0.01 in
21:09 44.1 °F 38.0 °F 29.65 in South 14.0 mph 30.0 mph 79% 0.00 in
21:14 43.9 °F 38.1 °F 29.65 in South 8.0 mph 21.0 mph 80% 0.00 in
21:19 44.1 °F 38.3 °F 29.65 in SSW 15.0 mph 27.0 mph 80% 0.00 in
21:24 44.3 °F 38.2 °F 29.65 in South 12.0 mph 27.0 mph 79% 0.00 in
21:29 44.3 °F 38.2 °F 29.64 in South 13.0 mph 26.0 mph 79% 0.00 in
21:34 44.5 °F 38.4 °F 29.65 in South 15.0 mph 30.0 mph 79% 0.00 in
21:39 44.5 °F 38.1 °F 29.64 in SSW 17.0 mph 27.0 mph 78% 0.00 in
21:44 44.5 °F 38.4 °F 29.65 in WSW 17.0 mph 34.0 mph 79% 0.00 in
21:49 44.6 °F 38.2 °F 29.65 in SSE 20.0 mph 29.0 mph 78% 0.00 in
21:54 44.5 °F 38.1 °F 29.65 in South 18.0 mph 20.0 mph 78% 0.00 in
21:59 44.5 °F 38.1 °F 29.64 in South 11.0 mph 30.0 mph 78% 0.00 in
22:04 44.8 °F 38.7 °F 29.64 in South 14.0 mph 30.0 mph 79% 0.00 in
22:09 45.1 °F 38.6 °F 29.63 in South 15.0 mph 30.0 mph 78% 0.00 in
22:14 45.0 °F 38.9 °F 29.64 in South 14.0 mph 27.0 mph 79% 0.00 in
22:19 45.0 °F 38.9 °F 29.64 in SW 14.0 mph 30.0 mph 79% 0.00 in
22:24 44.5 °F 38.7 °F 29.64 in South 14.0 mph 26.0 mph 80% 0.00 in
22:29 44.9 °F 39.1 °F 29.63 in SSW 9.0 mph 25.0 mph 80% 0.00 in
22:34 44.5 °F 38.4 °F 29.63 in South 13.0 mph 25.0 mph 79% 0.00 in
22:39 44.1 °F 38.3 °F 29.62 in SSE 19.0 mph 36.0 mph 80% 0.00 in
22:44 44.9 °F 39.1 °F 29.62 in South 10.0 mph 29.0 mph 80% 0.00 in
22:49 44.8 °F 38.7 °F 29.62 in South 6.0 mph 25.0 mph 79% 0.00 in
22:54 44.4 °F 38.6 °F 29.61 in SSW 7.0 mph 23.0 mph 80% 0.01 in
22:59 44.0 °F 38.5 °F 29.61 in SE 8.0 mph 22.0 mph 81% 0.01 in
23:04 43.9 °F 38.8 °F 29.62 in SSW 17.0 mph 25.0 mph 82% 0.01 in
23:09 44.1 °F 39.0 °F 29.63 in South 13.0 mph 25.0 mph 82% 0.01 in
23:14 44.3 °F 39.5 °F 29.62 in SSW 12.0 mph 27.0 mph 83% 0.01 in
23:19 44.5 °F 39.7 °F 29.61 in South 15.0 mph 33.0 mph 83% 0.02 in
23:24 44.2 °F 39.4 °F 29.60 in South 16.0 mph 33.0 mph 83% 0.02 in
23:29 44.0 °F 39.5 °F 29.61 in SSW 9.0 mph 24.0 mph 84% 0.02 in
23:34 44.2 °F 39.7 °F 29.62 in SSW 7.0 mph 21.0 mph 84% 0.03 in
23:39 43.8 °F 39.3 °F 29.61 in SSW 11.0 mph 21.0 mph 84% 0.03 in
23:44 43.7 °F 39.5 °F 29.62 in SSW 10.0 mph 23.0 mph 85% 0.04 in
23:49 43.8 °F 39.6 °F 29.62 in South 10.0 mph 21.0 mph 85% 0.04 in
23:54 43.7 °F 39.5 °F 29.63 in SSW 10.0 mph 18.0 mph 85% 0.03 in
23:59 44.1 °F 40.2 °F 29.63 in WSW 6.0 mph 23.0 mph 86% 0.04 in
Buffalo, New York, USA
Compliments of Weather Underground - 2.5 mb